N828WW MYAP-MDAB
Flight info
| Callsign | N828WW |
|---|---|
| Flight time | N/A |
| Altitude | 27000 |
| Route | WRECK DCT DCY |
| Aircraft | B60T/L-SDFGRY/C |
Departure
| Time | N/A |
|---|---|
| Airport | Spring Point Airport (MYAP) |
Arrival
| Time | 2026-04-29 21:35 |
|---|---|
| Airport | Arroyo Barril Airport (MDAB) |
| Time | Latitude | Longitude | Altitude | Speed | Heading |
|---|---|---|---|---|---|
| 2026-04-29 21:35 | 19.20054 | -69.43319 | 107 ft | 0 kts | 279° |
| 2026-04-29 21:48 | 19.20054 | -69.43321 | 107 ft | 0 kts | 265° |
| 2026-04-29 21:48 | 19.20048 | -69.43321 | 108 ft | 1 kts | 170° |
| 2026-04-29 21:48 | 19.20017 | -69.43273 | 107 ft | 12 kts | 174° |
| 2026-04-29 21:48 | 19.19955 | -69.43281 | 108 ft | 10 kts | 187° |
| 2026-04-29 21:49 | 19.19907 | -69.43347 | 109 ft | 19 kts | 279° |
| 2026-04-29 21:49 | 19.19943 | -69.43536 | 112 ft | 34 kts | 279° |
| 2026-04-29 21:49 | 19.19957 | -69.43639 | 113 ft | 0 kts | 12° |
| 2026-04-29 21:49 | 19.19959 | -69.43621 | 114 ft | 4 kts | 102° |
| 2026-04-29 21:50 | 19.19959 | -69.43619 | 114 ft | 0 kts | 99° |
| 2026-04-29 21:50 | 19.19897 | -69.43236 | 107 ft | 110 kts | 99° |
| 2026-04-29 21:51 | 19.19658 | -69.42331 | 581 ft | 135 kts | 117° |
| 2026-04-29 21:51 | 19.19049 | -69.41555 | 1335 ft | 136 kts | 130° |
| 2026-04-29 21:51 | 19.17675 | -69.40005 | 2549 ft | 153 kts | 125° |
| 2026-04-29 21:52 | 19.17084 | -69.39025 | 3097 ft | 164 kts | 115° |
| 2026-04-29 21:52 | 19.16559 | -69.37914 | 3671 ft | 175 kts | 115° |
| 2026-04-29 21:52 | 19.15951 | -69.36746 | 4263 ft | 187 kts | 120° |
| 2026-04-29 21:52 | 19.15257 | -69.35556 | 4860 ft | 194 kts | 122° |
| 2026-04-29 21:53 | 19.14523 | -69.34329 | 5466 ft | 201 kts | 122° |
| 2026-04-29 21:53 | 19.13784 | -69.33068 | 6061 ft | 204 kts | 122° |
| 2026-04-29 21:53 | 19.13027 | -69.31778 | 6632 ft | 210 kts | 122° |
| 2026-04-29 21:53 | 19.12248 | -69.30458 | 7195 ft | 214 kts | 123° |
| 2026-04-29 21:54 | 19.11452 | -69.29109 | 7771 ft | 219 kts | 123° |
| 2026-04-29 21:54 | 19.10642 | -69.27738 | 8359 ft | 221 kts | 123° |
| 2026-04-29 21:54 | 19.09822 | -69.26348 | 8945 ft | 223 kts | 123° |
| 2026-04-29 21:54 | 19.09007 | -69.24959 | 9547 ft | 227 kts | 123° |
| 2026-04-29 21:55 | 19.08156 | -69.23526 | 10137 ft | 227 kts | 123° |
| 2026-04-29 21:55 | 19.07324 | -69.22118 | 10683 ft | 232 kts | 123° |
| 2026-04-29 21:55 | 19.06466 | -69.20668 | 11262 ft | 234 kts | 123° |
| 2026-04-29 21:55 | 19.05605 | -69.19191 | 11846 ft | 238 kts | 123° |
| 2026-04-29 21:56 | 19.04729 | -69.17702 | 12435 ft | 242 kts | 123° |
| 2026-04-29 21:56 | 19.03816 | -69.16161 | 13050 ft | 252 kts | 123° |
| 2026-04-29 21:56 | 19.02866 | -69.14555 | 13670 ft | 263 kts | 123° |
| 2026-04-29 21:56 | 19.01882 | -69.12889 | 14237 ft | 272 kts | 123° |
| 2026-04-29 21:57 | 19.00866 | -69.11169 | 14812 ft | 280 kts | 124° |
| 2026-04-29 21:57 | 18.99817 | -69.09395 | 15394 ft | 289 kts | 124° |
| 2026-04-29 21:57 | 18.98737 | -69.07568 | 15985 ft | 297 kts | 124° |
| 2026-04-29 21:57 | 18.97626 | -69.05689 | 16585 ft | 306 kts | 124° |
| 2026-04-29 21:58 | 18.96483 | -69.03757 | 17193 ft | 314 kts | 124° |
| 2026-04-29 21:58 | 18.95310 | -69.01774 | 17811 ft | 322 kts | 124° |
| 2026-04-29 21:58 | 18.94113 | -68.99751 | 18414 ft | 328 kts | 124° |
| 2026-04-29 21:58 | 18.92897 | -68.97696 | 18961 ft | 332 kts | 125° |
| 2026-04-29 21:59 | 18.91661 | -68.95610 | 19511 ft | 340 kts | 125° |
| 2026-04-29 21:59 | 18.90390 | -68.93467 | 20014 ft | 351 kts | 125° |
| 2026-04-29 21:59 | 18.89044 | -68.91203 | 20035 ft | 377 kts | 125° |
| 2026-04-29 21:59 | 18.87632 | -68.88818 | 20039 ft | 385 kts | 125° |
| 2026-04-29 22:00 | 18.86206 | -68.86402 | 20031 ft | 388 kts | 125° |
| 2026-04-29 22:00 | 18.84775 | -68.83973 | 20029 ft | 391 kts | 125° |
| 2026-04-29 22:00 | 18.83325 | -68.81535 | 20088 ft | 396 kts | 125° |
| 2026-04-29 22:00 | 18.81859 | -68.79085 | 20236 ft | 402 kts | 125° |
| 2026-04-29 22:01 | 18.80361 | -68.76565 | 20387 ft | 406 kts | 125° |
| 2026-04-29 22:01 | 18.78858 | -68.74026 | 20530 ft | 409 kts | 125° |
| 2026-04-29 22:01 | 18.77344 | -68.71478 | 20680 ft | 411 kts | 125° |
| 2026-04-29 22:01 | 18.75824 | -68.68928 | 20827 ft | 412 kts | 125° |
| 2026-04-29 22:02 | 18.74295 | -68.66361 | 20974 ft | 414 kts | 125° |
| 2026-04-29 22:02 | 18.72769 | -68.63794 | 21121 ft | 413 kts | 125° |
| 2026-04-29 22:02 | 18.71237 | -68.61220 | 21265 ft | 415 kts | 126° |
| 2026-04-29 22:02 | 18.69694 | -68.58633 | 21415 ft | 421 kts | 126° |
| 2026-04-29 22:03 | 18.68104 | -68.55976 | 21644 ft | 435 kts | 126° |
| 2026-04-29 22:03 | 18.66471 | -68.53236 | 21885 ft | 448 kts | 126° |
| 2026-04-29 22:03 | 18.64798 | -68.50422 | 22122 ft | 456 kts | 126° |
| 2026-04-29 22:03 | 18.63100 | -68.47575 | 22361 ft | 461 kts | 126° |
| 2026-04-29 22:04 | 18.61381 | -68.44698 | 22597 ft | 465 kts | 126° |
| 2026-04-29 22:04 | 18.59652 | -68.41804 | 22821 ft | 468 kts | 126° |
| 2026-04-29 22:04 | 18.57914 | -68.38893 | 22824 ft | 468 kts | 126° |
| 2026-04-29 22:04 | 18.56178 | -68.35984 | 22822 ft | 469 kts | 126° |
| 2026-04-29 22:05 | 18.54691 | -68.32912 | 22815 ft | 474 kts | 116° |
| 2026-04-29 22:05 | 18.53664 | -68.29598 | 22819 ft | 478 kts | 107° |
| 2026-04-29 22:05 | 18.52315 | -68.22724 | 22835 ft | 479 kts | 104° |
| 2026-04-29 22:06 | 18.51644 | -68.19284 | 22836 ft | 479 kts | 104° |
| 2026-04-29 22:06 | 18.50986 | -68.15848 | 22831 ft | 478 kts | 104° |
| 2026-04-29 22:06 | 18.50329 | -68.12413 | 22771 ft | 477 kts | 104° |
| 2026-04-29 22:06 | 18.49665 | -68.08984 | 22769 ft | 478 kts | 104° |
| 2026-04-29 22:07 | 18.48999 | -68.05556 | 22772 ft | 477 kts | 104° |
| 2026-04-29 22:07 | 18.48337 | -68.02134 | 22861 ft | 478 kts | 104° |
| 2026-04-29 22:07 | 18.47602 | -67.98717 | 22851 ft | 476 kts | 108° |
| 2026-04-29 22:07 | 18.46704 | -67.95361 | 22860 ft | 477 kts | 109° |
| 2026-04-29 22:08 | 18.45802 | -67.91996 | 22861 ft | 477 kts | 109° |
| 2026-04-29 22:08 | 18.44922 | -67.88635 | 22860 ft | 477 kts | 108° |
| 2026-04-29 22:08 | 18.44042 | -67.85268 | 22854 ft | 477 kts | 108° |
| 2026-04-29 22:08 | 18.43173 | -67.81896 | 22852 ft | 478 kts | 107° |
| 2026-04-29 22:09 | 18.42462 | -67.78537 | 22852 ft | 454 kts | 104° |
| 2026-04-29 22:09 | 18.41882 | -67.75348 | 22853 ft | 444 kts | 103° |
| 2026-04-29 22:09 | 18.41248 | -67.72127 | 22846 ft | 452 kts | 106° |
| 2026-04-29 22:09 | 18.40531 | -67.68910 | 22854 ft | 452 kts | 107° |
| 2026-04-29 22:10 | 18.39734 | -67.65703 | 22850 ft | 457 kts | 109° |
| 2026-04-29 22:10 | 18.38816 | -67.62450 | 22867 ft | 468 kts | 110° |
| 2026-04-29 22:10 | 18.37795 | -67.59187 | 22877 ft | 471 kts | 112° |
| 2026-04-29 22:10 | 18.36718 | -67.55918 | 22873 ft | 473 kts | 111° |
| 2026-04-29 22:11 | 18.35741 | -67.52605 | 22864 ft | 476 kts | 109° |
| 2026-04-29 22:11 | 18.34799 | -67.49262 | 22864 ft | 476 kts | 109° |
| 2026-04-29 22:11 | 18.33862 | -67.45906 | 22502 ft | 478 kts | 109° |
| 2026-04-29 22:11 | 18.32994 | -67.42806 | 22081 ft | 471 kts | 109° |
| 2026-04-29 22:12 | 18.32068 | -67.39518 | 21632 ft | 467 kts | 109° |
| 2026-04-29 22:12 | 18.31146 | -67.36261 | 21152 ft | 463 kts | 109° |
| 2026-04-29 22:12 | 18.30169 | -67.33064 | 20641 ft | 456 kts | 114° |
| 2026-04-29 22:12 | 18.28494 | -67.30283 | 19817 ft | 446 kts | 133° |
| 2026-04-29 22:13 | 18.26296 | -67.28037 | 19075 ft | 436 kts | 141° |
| 2026-04-29 22:13 | 18.23999 | -67.25994 | 18379 ft | 431 kts | 142° |
| 2026-04-29 22:13 | 18.21748 | -67.23934 | 17540 ft | 427 kts | 139° |
| 2026-04-29 22:13 | 18.19715 | -67.21683 | 16672 ft | 423 kts | 132° |
| 2026-04-29 22:14 | 18.17893 | -67.19276 | 15829 ft | 418 kts | 128° |
| 2026-04-29 22:14 | 18.16148 | -67.16858 | 14953 ft | 412 kts | 129° |
| 2026-04-29 22:14 | 18.14316 | -67.14576 | 14081 ft | 405 kts | 133° |
| 2026-04-29 22:14 | 18.12428 | -67.12408 | 13163 ft | 398 kts | 133° |
| 2026-04-29 22:15 | 18.10641 | -67.10257 | 12223 ft | 393 kts | 130° |
| 2026-04-29 22:15 | 18.08916 | -67.08057 | 11305 ft | 388 kts | 130° |
| 2026-04-29 22:15 | 18.07191 | -67.05907 | 10405 ft | 382 kts | 131° |
| 2026-04-29 22:15 | 18.05429 | -67.03802 | 9486 ft | 373 kts | 131° |
| 2026-04-29 22:16 | 18.03759 | -67.01778 | 8542 ft | 360 kts | 131° |
| 2026-04-29 22:16 | 18.02172 | -66.99802 | 7630 ft | 349 kts | 130° |
| 2026-04-29 22:16 | 18.00626 | -66.97884 | 6736 ft | 339 kts | 130° |
| 2026-04-29 22:16 | 17.99227 | -66.96176 | 5853 ft | 279 kts | 130° |
| 2026-04-29 22:17 | 17.98043 | -66.94728 | 5337 ft | 256 kts | 129° |
| 2026-04-29 22:17 | 17.96902 | -66.93329 | 5281 ft | 248 kts | 130° |
| 2026-04-29 22:17 | 17.95785 | -66.91964 | 5262 ft | 245 kts | 130° |
| 2026-04-29 22:17 | 17.94681 | -66.90606 | 5249 ft | 244 kts | 130° |
| 2026-04-29 22:18 | 17.93581 | -66.89262 | 5241 ft | 241 kts | 130° |
| 2026-04-29 22:18 | 17.92491 | -66.87930 | 5237 ft | 238 kts | 129° |
| 2026-04-29 22:18 | 17.91708 | -66.86411 | 5172 ft | 235 kts | 104° |
| 2026-04-29 22:18 | 17.91653 | -66.84733 | 5071 ft | 236 kts | 79° |
| 2026-04-29 22:19 | 17.92321 | -66.83152 | 4859 ft | 242 kts | 54° |
| 2026-04-29 22:19 | 17.93428 | -66.81808 | 4673 ft | 246 kts | 50° |
| 2026-04-29 22:19 | 17.94572 | -66.80454 | 4417 ft | 249 kts | 50° |
| 2026-04-29 22:19 | 17.95710 | -66.79080 | 4145 ft | 250 kts | 50° |
| 2026-04-29 22:20 | 17.96843 | -66.77697 | 3859 ft | 248 kts | 53° |
| 2026-04-29 22:20 | 17.97710 | -66.76157 | 3578 ft | 245 kts | 64° |
| 2026-04-29 22:20 | 17.98455 | -66.74553 | 3323 ft | 245 kts | 65° |
| 2026-04-29 22:20 | 17.99235 | -66.72945 | 3034 ft | 251 kts | 63° |
| 2026-04-29 22:21 | 18.00073 | -66.71271 | 2755 ft | 262 kts | 63° |
| 2026-04-29 22:21 | 18.00892 | -66.69594 | 2483 ft | 251 kts | 63° |
| 2026-04-29 22:21 | 18.01619 | -66.67974 | 2213 ft | 241 kts | 70° |
| 2026-04-29 22:21 | 18.01754 | -66.66249 | 1854 ft | 238 kts | 94° |
| 2026-04-29 22:22 | 18.01648 | -66.64526 | 1482 ft | 230 kts | 95° |
| 2026-04-29 22:22 | 18.01625 | -66.63037 | 1118 ft | 178 kts | 88° |
| 2026-04-29 22:22 | 18.01758 | -66.61818 | 914 ft | 156 kts | 85° |
| 2026-04-29 22:22 | 18.01800 | -66.60717 | 693 ft | 147 kts | 91° |
| 2026-04-29 22:23 | 18.01747 | -66.59686 | 455 ft | 139 kts | 99° |
| 2026-04-29 22:23 | 18.01540 | -66.58735 | 354 ft | 133 kts | 104° |
| 2026-04-29 22:23 | 18.01294 | -66.57783 | 179 ft | 138 kts | 109° |
| 2026-04-29 22:23 | 18.01003 | -66.56849 | 42 ft | 127 kts | 110° |
| 2026-04-29 22:24 | 18.00776 | -66.56072 | 8 ft | 91 kts | 109° |
| 2026-04-29 22:24 | 18.00653 | -66.55711 | 15 ft | 37 kts | 107° |
| 2026-04-29 22:24 | 18.00582 | -66.55479 | 23 ft | 23 kts | 94° |
| 2026-04-29 22:24 | 18.00673 | -66.55440 | 17 ft | 16 kts | 294° |
| 2026-04-29 22:25 | 18.00722 | -66.55569 | 29 ft | 22 kts | 289° |
| 2026-04-29 22:25 | 18.00766 | -66.55715 | 21 ft | 20 kts | 290° |
| 2026-04-29 22:25 | 18.00806 | -66.55847 | 18 ft | 18 kts | 288° |
| 2026-04-29 22:25 | 18.00843 | -66.55969 | 11 ft | 17 kts | 287° |
| 2026-04-29 22:26 | 18.00897 | -66.56030 | 31 ft | 9 kts | 10° |
| 2026-04-29 22:26 | 18.00924 | -66.56055 | 26 ft | 3 kts | 263° |
| 2026-04-29 22:26 | 18.00918 | -66.56058 | 22 ft | 0 kts | 207° |